sensor_id;sensor_type;location;lat;lon;timestamp;P1;durP1;ratioP1;P2;durP2;ratioP2
40533;SDS011;26233;51.894;10.192;2023-07-22T00:00:56;3.88;;;2.85;;
40533;SDS011;26233;51.894;10.192;2023-07-22T00:03:23;2.83;;;2.50;;
40533;SDS011;26233;51.894;10.192;2023-07-22T00:06:01;3.17;;;2.97;;
40533;SDS011;26233;51.894;10.192;2023-07-22T00:08:32;3.63;;;2.55;;
40533;SDS011;26233;51.894;10.192;2023-07-22T00:10:59;2.80;;;2.50;;
40533;SDS011;26233;51.894;10.192;2023-07-22T00:13:26;3.08;;;2.55;;
40533;SDS011;26233;51.894;10.192;2023-07-22T00:15:54;3.38;;;3.08;;
40533;SDS011;26233;51.894;10.192;2023-07-22T00:18:22;4.45;;;2.80;;
40533;SDS011;26233;51.894;10.192;2023-07-22T00:20:50;3.85;;;3.05;;
40533;SDS011;26233;51.894;10.192;2023-07-22T00:23:17;3.10;;;2.90;;
40533;SDS011;26233;51.894;10.192;2023-07-22T00:25:46;2.88;;;2.67;;
40533;SDS011;26233;51.894;10.192;2023-07-22T00:28:13;3.53;;;3.20;;
40533;SDS011;26233;51.894;10.192;2023-07-22T00:30:40;3.22;;;2.92;;
40533;SDS011;26233;51.894;10.192;2023-07-22T00:33:08;3.55;;;3.25;;
40533;SDS011;26233;51.894;10.192;2023-07-22T00:35:35;3.28;;;2.97;;
40533;SDS011;26233;51.894;10.192;2023-07-22T00:38:02;3.25;;;2.95;;
40533;SDS011;26233;51.894;10.192;2023-07-22T00:40:30;3.72;;;2.88;;
40533;SDS011;26233;51.894;10.192;2023-07-22T00:42:58;3.28;;;2.88;;
40533;SDS011;26233;51.894;10.192;2023-07-22T00:45:25;3.00;;;2.72;;
40533;SDS011;26233;51.894;10.192;2023-07-22T00:47:52;3.50;;;3.17;;
40533;SDS011;26233;51.894;10.192;2023-07-22T00:50:19;4.93;;;3.40;;
40533;SDS011;26233;51.894;10.192;2023-07-22T00:52:48;3.30;;;3.00;;
40533;SDS011;26233;51.894;10.192;2023-07-22T00:55:15;5.35;;;3.65;;
40533;SDS011;26233;51.894;10.192;2023-07-22T00:57:42;4.80;;;3.38;;
40533;SDS011;26233;51.894;10.192;2023-07-22T01:00:11;3.92;;;3.33;;
40533;SDS011;26233;51.894;10.192;2023-07-22T01:02:41;3.40;;;3.10;;
40533;SDS011;26233;51.894;10.192;2023-07-22T01:05:09;3.63;;;3.25;;
40533;SDS011;26233;51.894;10.192;2023-07-22T01:07:37;4.85;;;3.55;;
40533;SDS011;26233;51.894;10.192;2023-07-22T01:10:05;3.58;;;3.30;;
40533;SDS011;26233;51.894;10.192;2023-07-22T01:12:34;3.85;;;3.38;;
40533;SDS011;26233;51.894;10.192;2023-07-22T01:15:02;4.35;;;3.63;;
40533;SDS011;26233;51.894;10.192;2023-07-22T01:17:34;3.72;;;3.42;;
40533;SDS011;26233;51.894;10.192;2023-07-22T01:20:03;4.30;;;3.90;;
40533;SDS011;26233;51.894;10.192;2023-07-22T01:22:31;4.22;;;3.83;;
40533;SDS011;26233;51.894;10.192;2023-07-22T01:25:01;4.72;;;3.80;;
40533;SDS011;26233;51.894;10.192;2023-07-22T01:27:28;4.43;;;4.03;;
40533;SDS011;26233;51.894;10.192;2023-07-22T01:29:55;4.88;;;3.88;;
40533;SDS011;26233;51.894;10.192;2023-07-22T01:32:23;4.43;;;4.03;;
40533;SDS011;26233;51.894;10.192;2023-07-22T01:34:50;4.15;;;3.75;;
40533;SDS011;26233;51.894;10.192;2023-07-22T01:37:17;4.20;;;3.80;;
40533;SDS011;26233;51.894;10.192;2023-07-22T01:39:44;5.50;;;4.30;;
40533;SDS011;26233;51.894;10.192;2023-07-22T01:42:12;4.70;;;4.30;;
40533;SDS011;26233;51.894;10.192;2023-07-22T01:44:39;4.63;;;4.20;;
40533;SDS011;26233;51.894;10.192;2023-07-22T01:47:07;5.88;;;4.32;;
40533;SDS011;26233;51.894;10.192;2023-07-22T01:49:34;4.53;;;4.22;;
40533;SDS011;26233;51.894;10.192;2023-07-22T01:52:01;5.60;;;4.20;;
40533;SDS011;26233;51.894;10.192;2023-07-22T01:54:28;5.10;;;4.30;;
40533;SDS011;26233;51.894;10.192;2023-07-22T01:56:55;4.97;;;4.47;;
40533;SDS011;26233;51.894;10.192;2023-07-22T01:59:24;7.53;;;4.45;;
40533;SDS011;26233;51.894;10.192;2023-07-22T02:01:51;5.03;;;4.43;;
40533;SDS011;26233;51.894;10.192;2023-07-22T02:04:18;5.45;;;4.75;;
40533;SDS011;26233;51.894;10.192;2023-07-22T02:06:45;5.35;;;4.60;;
40533;SDS011;26233;51.894;10.192;2023-07-22T02:09:13;5.07;;;4.68;;
40533;SDS011;26233;51.894;10.192;2023-07-22T02:11:40;5.40;;;4.57;;
40533;SDS011;26233;51.894;10.192;2023-07-22T02:14:07;4.57;;;4.18;;
40533;SDS011;26233;51.894;10.192;2023-07-22T02:16:35;4.88;;;4.45;;
40533;SDS011;26233;51.894;10.192;2023-07-22T02:19:03;5.90;;;4.72;;
40533;SDS011;26233;51.894;10.192;2023-07-22T02:21:30;5.30;;;4.68;;
40533;SDS011;26233;51.894;10.192;2023-07-22T02:23:58;5.78;;;4.93;;
40533;SDS011;26233;51.894;10.192;2023-07-22T02:26:25;5.68;;;5.18;;
40533;SDS011;26233;51.894;10.192;2023-07-22T02:28:52;5.75;;;5.00;;
40533;SDS011;26233;51.894;10.192;2023-07-22T02:31:19;5.70;;;5.10;;
40533;SDS011;26233;51.894;10.192;2023-07-22T02:33:49;5.53;;;5.03;;
40533;SDS011;26233;51.894;10.192;2023-07-22T02:36:16;6.53;;;5.00;;
40533;SDS011;26233;51.894;10.192;2023-07-22T02:38:43;6.68;;;4.93;;
40533;SDS011;26233;51.894;10.192;2023-07-22T02:41:10;6.28;;;4.72;;
40533;SDS011;26233;51.894;10.192;2023-07-22T02:43:37;5.28;;;4.78;;
40533;SDS011;26233;51.894;10.192;2023-07-22T02:46:05;5.30;;;4.80;;
40533;SDS011;26233;51.894;10.192;2023-07-22T02:48:33;5.80;;;4.65;;
40533;SDS011;26233;51.894;10.192;2023-07-22T02:51:05;5.22;;;4.72;;
40533;SDS011;26233;51.894;10.192;2023-07-22T02:53:34;5.18;;;4.70;;
40533;SDS011;26233;51.894;10.192;2023-07-22T02:56:02;5.40;;;4.90;;
40533;SDS011;26233;51.894;10.192;2023-07-22T02:58:31;5.53;;;4.97;;
40533;SDS011;26233;51.894;10.192;2023-07-22T03:00:59;5.05;;;4.55;;
40533;SDS011;26233;51.894;10.192;2023-07-22T03:03:26;5.93;;;4.60;;
40533;SDS011;26233;51.894;10.192;2023-07-22T03:05:53;5.57;;;4.93;;
40533;SDS011;26233;51.894;10.192;2023-07-22T03:08:23;5.40;;;4.90;;
40533;SDS011;26233;51.894;10.192;2023-07-22T03:10:51;5.47;;;4.88;;
40533;SDS011;26233;51.894;10.192;2023-07-22T03:13:18;5.65;;;5.15;;
40533;SDS011;26233;51.894;10.192;2023-07-22T03:15:45;5.55;;;5.05;;
40533;SDS011;26233;51.894;10.192;2023-07-22T03:18:12;5.90;;;5.07;;
40533;SDS011;26233;51.894;10.192;2023-07-22T03:20:39;6.03;;;5.30;;
40533;SDS011;26233;51.894;10.192;2023-07-22T03:23:07;5.65;;;5.15;;
40533;SDS011;26233;51.894;10.192;2023-07-22T03:25:36;5.82;;;5.22;;
40533;SDS011;26233;51.894;10.192;2023-07-22T03:28:03;5.57;;;5.07;;
40533;SDS011;26233;51.894;10.192;2023-07-22T03:30:32;5.78;;;5.22;;
40533;SDS011;26233;51.894;10.192;2023-07-22T03:32:59;5.88;;;5.38;;
40533;SDS011;26233;51.894;10.192;2023-07-22T03:35:27;5.60;;;5.10;;
40533;SDS011;26233;51.894;10.192;2023-07-22T03:37:54;5.13;;;4.63;;
40533;SDS011;26233;51.894;10.192;2023-07-22T03:40:21;5.60;;;5.10;;
40533;SDS011;26233;51.894;10.192;2023-07-22T03:42:53;5.65;;;5.00;;
40533;SDS011;26233;51.894;10.192;2023-07-22T03:45:21;6.00;;;5.40;;
40533;SDS011;26233;51.894;10.192;2023-07-22T03:47:50;6.15;;;5.43;;
40533;SDS011;26233;51.894;10.192;2023-07-22T03:50:19;5.68;;;5.18;;
40533;SDS011;26233;51.894;10.192;2023-07-22T03:52:46;5.38;;;4.88;;
40533;SDS011;26233;51.894;10.192;2023-07-22T03:55:13;6.07;;;5.07;;
40533;SDS011;26233;51.894;10.192;2023-07-22T03:57:41;5.80;;;5.22;;
40533;SDS011;26233;51.894;10.192;2023-07-22T04:00:09;5.20;;;4.80;;
40533;SDS011;26233;51.894;10.192;2023-07-22T04:02:38;5.10;;;4.68;;
40533;SDS011;26233;51.894;10.192;2023-07-22T04:05:05;4.68;;;4.07;;
40533;SDS011;26233;51.894;10.192;2023-07-22T04:07:33;6.15;;;5.28;;
40533;SDS011;26233;51.894;10.192;2023-07-22T04:10:00;5.82;;;4.88;;
40533;SDS011;26233;51.894;10.192;2023-07-22T04:12:29;4.75;;;4.35;;
40533;SDS011;26233;51.894;10.192;2023-07-22T04:14:56;5.63;;;4.45;;
40533;SDS011;26233;51.894;10.192;2023-07-22T04:17:25;5.55;;;4.78;;
40533;SDS011;26233;51.894;10.192;2023-07-22T04:19:52;5.05;;;4.55;;
40533;SDS011;26233;51.894;10.192;2023-07-22T04:22:20;6.30;;;5.13;;
40533;SDS011;26233;51.894;10.192;2023-07-22T04:24:49;5.65;;;4.63;;
40533;SDS011;26233;51.894;10.192;2023-07-22T04:27:16;5.78;;;5.18;;
40533;SDS011;26233;51.894;10.192;2023-07-22T04:29:43;5.70;;;5.20;;
40533;SDS011;26233;51.894;10.192;2023-07-22T04:32:10;6.00;;;5.38;;
40533;SDS011;26233;51.894;10.192;2023-07-22T04:34:39;5.65;;;5.10;;
40533;SDS011;26233;51.894;10.192;2023-07-22T04:37:06;6.13;;;5.53;;
40533;SDS011;26233;51.894;10.192;2023-07-22T04:39:33;6.75;;;6.05;;
40533;SDS011;26233;51.894;10.192;2023-07-22T04:42:01;5.60;;;5.10;;
40533;SDS011;26233;51.894;10.192;2023-07-22T04:44:31;6.60;;;5.63;;
40533;SDS011;26233;51.894;10.192;2023-07-22T04:46:58;6.10;;;5.50;;
40533;SDS011;26233;51.894;10.192;2023-07-22T04:49:26;5.97;;;5.38;;
40533;SDS011;26233;51.894;10.192;2023-07-22T04:51:54;6.55;;;5.65;;
40533;SDS011;26233;51.894;10.192;2023-07-22T04:54:21;5.82;;;5.20;;
40533;SDS011;26233;51.894;10.192;2023-07-22T04:56:48;6.18;;;5.43;;
40533;SDS011;26233;51.894;10.192;2023-07-22T04:59:15;5.65;;;5.15;;
40533;SDS011;26233;51.894;10.192;2023-07-22T05:01:43;6.20;;;5.22;;
40533;SDS011;26233;51.894;10.192;2023-07-22T05:04:10;6.13;;;5.50;;
40533;SDS011;26233;51.894;10.192;2023-07-22T05:06:38;5.88;;;5.30;;
40533;SDS011;26233;51.894;10.192;2023-07-22T05:09:06;5.88;;;5.25;;
40533;SDS011;26233;51.894;10.192;2023-07-22T05:11:34;5.82;;;5.22;;
40533;SDS011;26233;51.894;10.192;2023-07-22T05:14:01;7.18;;;5.72;;
40533;SDS011;26233;51.894;10.192;2023-07-22T05:16:28;7.57;;;5.72;;
40533;SDS011;26233;51.894;10.192;2023-07-22T05:18:55;6.07;;;4.90;;
40533;SDS011;26233;51.894;10.192;2023-07-22T05:21:22;6.38;;;5.78;;
40533;SDS011;26233;51.894;10.192;2023-07-22T05:23:49;6.35;;;5.65;;
40533;SDS011;26233;51.894;10.192;2023-07-22T05:26:17;6.60;;;5.70;;
40533;SDS011;26233;51.894;10.192;2023-07-22T05:28:44;6.18;;;5.57;;
40533;SDS011;26233;51.894;10.192;2023-07-22T05:31:11;6.15;;;5.55;;
40533;SDS011;26233;51.894;10.192;2023-07-22T05:33:38;5.80;;;5.20;;
40533;SDS011;26233;51.894;10.192;2023-07-22T05:36:05;6.78;;;5.38;;
40533;SDS011;26233;51.894;10.192;2023-07-22T05:38:32;5.88;;;5.30;;
40533;SDS011;26233;51.894;10.192;2023-07-22T05:41:00;5.32;;;4.57;;
40533;SDS011;26233;51.894;10.192;2023-07-22T05:43:28;5.57;;;4.97;;
40533;SDS011;26233;51.894;10.192;2023-07-22T05:45:55;6.78;;;4.97;;
40533;SDS011;26233;51.894;10.192;2023-07-22T05:48:22;5.80;;;5.30;;
40533;SDS011;26233;51.894;10.192;2023-07-22T05:50:49;5.88;;;5.22;;
40533;SDS011;26233;51.894;10.192;2023-07-22T05:53:17;5.60;;;5.05;;
40533;SDS011;26233;51.894;10.192;2023-07-22T05:55:44;6.28;;;5.68;;
40533;SDS011;26233;51.894;10.192;2023-07-22T05:58:15;5.45;;;4.88;;
40533;SDS011;26233;51.894;10.192;2023-07-22T06:00:43;5.63;;;5.13;;
40533;SDS011;26233;51.894;10.192;2023-07-22T06:03:11;5.57;;;5.07;;
40533;SDS011;26233;51.894;10.192;2023-07-22T06:05:38;5.35;;;4.85;;
40533;SDS011;26233;51.894;10.192;2023-07-22T06:08:05;6.15;;;4.80;;
40533;SDS011;26233;51.894;10.192;2023-07-22T06:10:32;5.57;;;5.07;;
40533;SDS011;26233;51.894;10.192;2023-07-22T06:13:02;5.63;;;5.00;;
40533;SDS011;26233;51.894;10.192;2023-07-22T06:15:29;6.20;;;5.10;;
40533;SDS011;26233;51.894;10.192;2023-07-22T06:17:58;5.53;;;4.93;;
40533;SDS011;26233;51.894;10.192;2023-07-22T06:20:25;6.82;;;5.43;;
40533;SDS011;26233;51.894;10.192;2023-07-22T06:22:52;6.65;;;5.57;;
40533;SDS011;26233;51.894;10.192;2023-07-22T06:25:19;7.20;;;4.93;;
40533;SDS011;26233;51.894;10.192;2023-07-22T06:27:46;5.78;;;5.22;;
40533;SDS011;26233;51.894;10.192;2023-07-22T06:30:14;5.30;;;4.80;;
40533;SDS011;26233;51.894;10.192;2023-07-22T06:32:42;5.70;;;5.05;;
40533;SDS011;26233;51.894;10.192;2023-07-22T06:35:11;5.60;;;4.45;;
40533;SDS011;26233;51.894;10.192;2023-07-22T06:37:38;5.45;;;4.82;;
40533;SDS011;26233;51.894;10.192;2023-07-22T06:40:05;5.55;;;4.40;;
40533;SDS011;26233;51.894;10.192;2023-07-22T06:42:34;5.38;;;4.88;;
40533;SDS011;26233;51.894;10.192;2023-07-22T06:45:01;5.70;;;5.20;;
40533;SDS011;26233;51.894;10.192;2023-07-22T06:47:28;5.60;;;5.10;;
40533;SDS011;26233;51.894;10.192;2023-07-22T06:49:55;4.88;;;4.40;;
40533;SDS011;26233;51.894;10.192;2023-07-22T06:52:23;5.80;;;4.63;;
40533;SDS011;26233;51.894;10.192;2023-07-22T06:54:50;5.57;;;5.00;;
40533;SDS011;26233;51.894;10.192;2023-07-22T06:57:17;5.05;;;4.65;;
40533;SDS011;26233;51.894;10.192;2023-07-22T06:59:45;5.60;;;5.10;;
40533;SDS011;26233;51.894;10.192;2023-07-22T07:02:12;5.78;;;5.15;;
40533;SDS011;26233;51.894;10.192;2023-07-22T07:04:39;5.00;;;4.57;;
40533;SDS011;26233;51.894;10.192;2023-07-22T07:07:06;5.70;;;5.10;;
40533;SDS011;26233;51.894;10.192;2023-07-22T07:09:35;6.07;;;5.07;;
40533;SDS011;26233;51.894;10.192;2023-07-22T07:12:03;5.10;;;4.63;;
40533;SDS011;26233;51.894;10.192;2023-07-22T07:14:32;4.88;;;4.45;;
40533;SDS011;26233;51.894;10.192;2023-07-22T07:16:59;5.35;;;4.85;;
40533;SDS011;26233;51.894;10.192;2023-07-22T07:19:27;6.63;;;4.95;;
40533;SDS011;26233;51.894;10.192;2023-07-22T07:21:54;5.38;;;4.72;;
40533;SDS011;26233;51.894;10.192;2023-07-22T07:24:21;5.47;;;4.97;;
40533;SDS011;26233;51.894;10.192;2023-07-22T07:26:50;6.68;;;5.10;;
40533;SDS011;26233;51.894;10.192;2023-07-22T07:29:17;5.40;;;4.90;;
40533;SDS011;26233;51.894;10.192;2023-07-22T07:31:44;5.30;;;4.80;;
40533;SDS011;26233;51.894;10.192;2023-07-22T07:34:11;5.72;;;5.13;;
40533;SDS011;26233;51.894;10.192;2023-07-22T07:36:38;6.07;;;5.47;;
40533;SDS011;26233;51.894;10.192;2023-07-22T07:39:05;5.70;;;5.20;;
40533;SDS011;26233;51.894;10.192;2023-07-22T07:41:32;5.30;;;4.80;;
40533;SDS011;26233;51.894;10.192;2023-07-22T07:44:01;5.45;;;4.28;;
40533;SDS011;26233;51.894;10.192;2023-07-22T07:46:28;5.05;;;4.55;;
40533;SDS011;26233;51.894;10.192;2023-07-22T07:48:57;5.18;;;4.72;;
40533;SDS011;26233;51.894;10.192;2023-07-22T07:51:27;6.05;;;5.47;;
40533;SDS011;26233;51.894;10.192;2023-07-22T07:53:56;5.45;;;4.82;;
40533;SDS011;26233;51.894;10.192;2023-07-22T07:56:25;5.38;;;4.88;;
40533;SDS011;26233;51.894;10.192;2023-07-22T07:58:54;5.57;;;5.07;;
40533;SDS011;26233;51.894;10.192;2023-07-22T08:01:23;5.80;;;5.35;;
40533;SDS011;26233;51.894;10.192;2023-07-22T08:03:50;4.82;;;4.40;;
40533;SDS011;26233;51.894;10.192;2023-07-22T08:06:17;5.40;;;4.95;;
40533;SDS011;26233;51.894;10.192;2023-07-22T08:08:44;5.72;;;4.72;;
40533;SDS011;26233;51.894;10.192;2023-07-22T08:11:12;6.25;;;5.00;;
40533;SDS011;26233;51.894;10.192;2023-07-22T08:13:40;5.63;;;4.90;;
40533;SDS011;26233;51.894;10.192;2023-07-22T08:16:10;4.95;;;4.55;;
40533;SDS011;26233;51.894;10.192;2023-07-22T08:18:40;5.95;;;5.38;;
40533;SDS011;26233;51.894;10.192;2023-07-22T08:21:07;6.50;;;5.88;;
40533;SDS011;26233;51.894;10.192;2023-07-22T08:23:34;5.97;;;5.25;;
40533;SDS011;26233;51.894;10.192;2023-07-22T08:26:02;8.43;;;5.53;;
40533;SDS011;26233;51.894;10.192;2023-07-22T08:28:31;6.05;;;5.28;;
40533;SDS011;26233;51.894;10.192;2023-07-22T08:30:58;5.50;;;5.00;;
40533;SDS011;26233;51.894;10.192;2023-07-22T08:33:26;5.30;;;4.80;;
40533;SDS011;26233;51.894;10.192;2023-07-22T08:35:55;5.28;;;4.88;;
40533;SDS011;26233;51.894;10.192;2023-07-22T08:38:22;5.72;;;5.15;;
40533;SDS011;26233;51.894;10.192;2023-07-22T08:40:49;5.05;;;4.65;;
40533;SDS011;26233;51.894;10.192;2023-07-22T08:43:19;5.03;;;4.53;;
40533;SDS011;26233;51.894;10.192;2023-07-22T08:45:48;5.28;;;4.75;;
40533;SDS011;26233;51.894;10.192;2023-07-22T08:48:18;5.65;;;5.15;;
40533;SDS011;26233;51.894;10.192;2023-07-22T08:50:55;5.63;;;5.13;;
40533;SDS011;26233;51.894;10.192;2023-07-22T08:53:28;5.70;;;5.00;;
40533;SDS011;26233;51.894;10.192;2023-07-22T08:55:58;5.28;;;4.78;;
40533;SDS011;26233;51.894;10.192;2023-07-22T08:58:25;5.97;;;5.22;;
40533;SDS011;26233;51.894;10.192;2023-07-22T09:00:53;5.40;;;5.00;;
40533;SDS011;26233;51.894;10.192;2023-07-22T09:03:21;5.90;;;5.30;;
40533;SDS011;26233;51.894;10.192;2023-07-22T09:05:49;5.88;;;5.32;;
40533;SDS011;26233;51.894;10.192;2023-07-22T09:08:19;5.22;;;4.72;;
40533;SDS011;26233;51.894;10.192;2023-07-22T09:10:47;5.35;;;4.90;;
40533;SDS011;26233;51.894;10.192;2023-07-22T09:13:15;5.47;;;5.00;;
40533;SDS011;26233;51.894;10.192;2023-07-22T09:15:44;5.15;;;4.65;;
40533;SDS011;26233;51.894;10.192;2023-07-22T09:18:12;5.57;;;5.10;;
40533;SDS011;26233;51.894;10.192;2023-07-22T09:20:41;5.55;;;5.07;;
40533;SDS011;26233;51.894;10.192;2023-07-22T09:23:08;5.53;;;5.03;;
40533;SDS011;26233;51.894;10.192;2023-07-22T09:25:37;6.88;;;5.60;;
40533;SDS011;26233;51.894;10.192;2023-07-22T09:28:05;5.50;;;5.00;;
40533;SDS011;26233;51.894;10.192;2023-07-22T09:30:32;5.68;;;5.18;;
40533;SDS011;26233;51.894;10.192;2023-07-22T09:33:02;6.13;;;5.55;;
40533;SDS011;26233;51.894;10.192;2023-07-22T09:35:43;5.65;;;5.15;;
40533;SDS011;26233;51.894;10.192;2023-07-22T09:38:12;6.20;;;5.60;;
40533;SDS011;26233;51.894;10.192;2023-07-22T09:40:42;6.15;;;5.65;;
40533;SDS011;26233;51.894;10.192;2023-07-22T09:43:09;6.68;;;5.82;;
40533;SDS011;26233;51.894;10.192;2023-07-22T09:45:38;5.55;;;5.05;;
40533;SDS011;26233;51.894;10.192;2023-07-22T09:48:05;6.38;;;5.50;;
40533;SDS011;26233;51.894;10.192;2023-07-22T09:50:37;5.63;;;5.13;;
40533;SDS011;26233;51.894;10.192;2023-07-22T09:53:05;5.28;;;4.88;;
40533;SDS011;26233;51.894;10.192;2023-07-22T09:55:33;6.22;;;5.63;;
40533;SDS011;26233;51.894;10.192;2023-07-22T09:58:02;5.95;;;5.40;;
40533;SDS011;26233;51.894;10.192;2023-07-22T10:00:30;5.68;;;5.18;;
40533;SDS011;26233;51.894;10.192;2023-07-22T10:03:00;5.60;;;5.20;;
40533;SDS011;26233;51.894;10.192;2023-07-22T10:05:30;5.25;;;4.85;;
40533;SDS011;26233;51.894;10.192;2023-07-22T10:08:02;5.82;;;5.32;;
40533;SDS011;26233;51.894;10.192;2023-07-22T10:10:30;6.07;;;5.57;;
40533;SDS011;26233;51.894;10.192;2023-07-22T10:13:02;6.28;;;5.78;;
40533;SDS011;26233;51.894;10.192;2023-07-22T10:15:30;6.35;;;5.75;;
40533;SDS011;26233;51.894;10.192;2023-07-22T10:17:59;7.00;;;6.22;;
40533;SDS011;26233;51.894;10.192;2023-07-22T10:20:27;6.03;;;5.53;;
40533;SDS011;26233;51.894;10.192;2023-07-22T10:22:59;6.20;;;5.70;;
40533;SDS011;26233;51.894;10.192;2023-07-22T10:25:29;6.20;;;5.43;;
40533;SDS011;26233;51.894;10.192;2023-07-22T10:27:57;6.50;;;6.00;;
40533;SDS011;26233;51.894;10.192;2023-07-22T10:30:25;6.18;;;5.57;;
40533;SDS011;26233;51.894;10.192;2023-07-22T10:32:52;5.82;;;5.32;;
40533;SDS011;26233;51.894;10.192;2023-07-22T10:35:21;6.07;;;5.55;;
40533;SDS011;26233;51.894;10.192;2023-07-22T10:38:06;5.72;;;5.25;;
40533;SDS011;26233;51.894;10.192;2023-07-22T10:40:36;5.30;;;4.88;;
40533;SDS011;26233;51.894;10.192;2023-07-22T10:43:12;6.50;;;5.90;;
40533;SDS011;26233;51.894;10.192;2023-07-22T10:45:48;6.07;;;5.57;;
40533;SDS011;26233;51.894;10.192;2023-07-22T10:48:17;5.28;;;4.88;;
40533;SDS011;26233;51.894;10.192;2023-07-22T10:50:46;6.03;;;5.50;;
40533;SDS011;26233;51.894;10.192;2023-07-22T10:53:19;5.55;;;5.10;;
40533;SDS011;26233;51.894;10.192;2023-07-22T10:56:11;6.10;;;5.60;;
40533;SDS011;26233;51.894;10.192;2023-07-22T10:58:59;5.70;;;5.10;;
40533;SDS011;26233;51.894;10.192;2023-07-22T11:01:36;6.20;;;5.50;;
40533;SDS011;26233;51.894;10.192;2023-07-22T11:06:56;5.82;;;5.28;;
40533;SDS011;26233;51.894;10.192;2023-07-22T11:09:38;5.78;;;4.95;;
40533;SDS011;26233;51.894;10.192;2023-07-22T11:12:08;6.03;;;5.53;;
40533;SDS011;26233;51.894;10.192;2023-07-22T11:14:41;5.20;;;4.80;;
40533;SDS011;26233;51.894;10.192;2023-07-22T11:17:15;6.35;;;5.75;;
40533;SDS011;26233;51.894;10.192;2023-07-22T11:19:43;5.20;;;4.80;;
40533;SDS011;26233;51.894;10.192;2023-07-22T11:22:11;5.47;;;5.07;;
40533;SDS011;26233;51.894;10.192;2023-07-22T11:24:39;6.10;;;5.60;;
40533;SDS011;26233;51.894;10.192;2023-07-22T11:27:07;5.82;;;5.32;;
40533;SDS011;26233;51.894;10.192;2023-07-22T11:29:35;5.07;;;4.57;;
40533;SDS011;26233;51.894;10.192;2023-07-22T11:32:02;6.50;;;5.20;;
40533;SDS011;26233;51.894;10.192;2023-07-22T11:34:32;4.97;;;4.57;;
40533;SDS011;26233;51.894;10.192;2023-07-22T11:36:59;5.20;;;4.80;;
40533;SDS011;26233;51.894;10.192;2023-07-22T11:39:26;5.30;;;4.80;;
40533;SDS011;26233;51.894;10.192;2023-07-22T11:41:56;5.47;;;5.03;;
40533;SDS011;26233;51.894;10.192;2023-07-22T11:44:28;5.47;;;4.97;;
40533;SDS011;26233;51.894;10.192;2023-07-22T11:46:57;5.88;;;5.38;;
40533;SDS011;26233;51.894;10.192;2023-07-22T11:49:26;5.55;;;5.10;;
40533;SDS011;26233;51.894;10.192;2023-07-22T11:51:57;5.28;;;4.88;;
40533;SDS011;26233;51.894;10.192;2023-07-22T11:54:25;5.45;;;4.95;;
40533;SDS011;26233;51.894;10.192;2023-07-22T11:56:53;5.65;;;5.15;;
40533;SDS011;26233;51.894;10.192;2023-07-22T11:59:33;5.60;;;4.95;;
40533;SDS011;26233;51.894;10.192;2023-07-22T12:02:02;4.95;;;4.55;;
40533;SDS011;26233;51.894;10.192;2023-07-22T12:04:31;4.85;;;4.45;;
40533;SDS011;26233;51.894;10.192;2023-07-22T12:06:59;4.95;;;4.50;;
40533;SDS011;26233;51.894;10.192;2023-07-22T12:09:29;5.38;;;4.15;;
40533;SDS011;26233;51.894;10.192;2023-07-22T12:11:56;6.28;;;4.75;;
40533;SDS011;26233;51.894;10.192;2023-07-22T12:14:25;5.32;;;4.93;;
40533;SDS011;26233;51.894;10.192;2023-07-22T12:17:00;5.47;;;4.97;;
40533;SDS011;26233;51.894;10.192;2023-07-22T12:19:28;5.00;;;4.60;;
40533;SDS011;26233;51.894;10.192;2023-07-22T12:21:55;4.72;;;4.32;;
40533;SDS011;26233;51.894;10.192;2023-07-22T12:24:24;4.90;;;4.50;;
40533;SDS011;26233;51.894;10.192;2023-07-22T12:26:51;4.75;;;4.35;;
40533;SDS011;26233;51.894;10.192;2023-07-22T12:29:18;5.32;;;4.78;;
40533;SDS011;26233;51.894;10.192;2023-07-22T12:31:47;4.97;;;4.57;;
40533;SDS011;26233;51.894;10.192;2023-07-22T12:34:14;5.22;;;4.80;;
40533;SDS011;26233;51.894;10.192;2023-07-22T12:36:41;5.65;;;5.05;;
40533;SDS011;26233;51.894;10.192;2023-07-22T12:39:08;5.50;;;4.32;;
40533;SDS011;26233;51.894;10.192;2023-07-22T12:41:37;5.85;;;5.10;;
40533;SDS011;26233;51.894;10.192;2023-07-22T12:44:04;4.70;;;4.30;;
40533;SDS011;26233;51.894;10.192;2023-07-22T12:46:31;4.50;;;4.20;;
40533;SDS011;26233;51.894;10.192;2023-07-22T12:48:58;4.82;;;4.43;;
40533;SDS011;26233;51.894;10.192;2023-07-22T12:51:25;4.90;;;4.50;;
40533;SDS011;26233;51.894;10.192;2023-07-22T12:53:52;5.25;;;4.35;;
40533;SDS011;26233;51.894;10.192;2023-07-22T12:56:19;5.10;;;4.70;;
40533;SDS011;26233;51.894;10.192;2023-07-22T12:58:48;4.70;;;4.30;;
40533;SDS011;26233;51.894;10.192;2023-07-22T13:01:15;6.93;;;4.47;;
40533;SDS011;26233;51.894;10.192;2023-07-22T13:03:42;4.13;;;3.83;;
40533;SDS011;26233;51.894;10.192;2023-07-22T13:06:09;4.75;;;4.35;;
40533;SDS011;26233;51.894;10.192;2023-07-22T13:08:36;4.90;;;4.50;;
40533;SDS011;26233;51.894;10.192;2023-07-22T13:11:03;4.70;;;4.30;;
40533;SDS011;26233;51.894;10.192;2023-07-22T13:13:30;4.75;;;4.35;;
40533;SDS011;26233;51.894;10.192;2023-07-22T13:15:59;4.63;;;4.32;;
40533;SDS011;26233;51.894;10.192;2023-07-22T13:18:26;4.40;;;4.03;;
40533;SDS011;26233;51.894;10.192;2023-07-22T13:20:53;4.78;;;4.38;;
40533;SDS011;26233;51.894;10.192;2023-07-22T13:23:20;4.90;;;4.40;;
40533;SDS011;26233;51.894;10.192;2023-07-22T13:25:47;4.63;;;4.22;;
40533;SDS011;26233;51.894;10.192;2023-07-22T13:28:14;4.05;;;3.75;;
40533;SDS011;26233;51.894;10.192;2023-07-22T13:30:41;4.32;;;3.92;;
40533;SDS011;26233;51.894;10.192;2023-07-22T13:33:10;4.00;;;3.70;;
40533;SDS011;26233;51.894;10.192;2023-07-22T13:35:37;4.05;;;3.75;;
40533;SDS011;26233;51.894;10.192;2023-07-22T13:38:04;6.65;;;3.50;;
40533;SDS011;26233;51.894;10.192;2023-07-22T13:40:31;4.30;;;3.75;;
40533;SDS011;26233;51.894;10.192;2023-07-22T13:42:58;3.85;;;3.55;;
40533;SDS011;26233;51.894;10.192;2023-07-22T13:45:25;4.10;;;3.80;;
40533;SDS011;26233;51.894;10.192;2023-07-22T13:47:52;4.85;;;4.45;;
40533;SDS011;26233;51.894;10.192;2023-07-22T13:50:21;4.20;;;3.90;;
40533;SDS011;26233;51.894;10.192;2023-07-22T13:52:48;3.85;;;3.55;;
40533;SDS011;26233;51.894;10.192;2023-07-22T13:55:15;3.83;;;3.53;;
40533;SDS011;26233;51.894;10.192;2023-07-22T13:57:43;3.67;;;3.38;;
40533;SDS011;26233;51.894;10.192;2023-07-22T14:00:10;4.07;;;3.78;;
40533;SDS011;26233;51.894;10.192;2023-07-22T14:02:39;4.18;;;3.83;;
40533;SDS011;26233;51.894;10.192;2023-07-22T14:05:07;3.90;;;3.60;;
40533;SDS011;26233;51.894;10.192;2023-07-22T14:07:36;4.18;;;3.85;;
40533;SDS011;26233;51.894;10.192;2023-07-22T14:10:04;4.30;;;4.00;;
40533;SDS011;26233;51.894;10.192;2023-07-22T14:12:33;3.85;;;3.53;;
40533;SDS011;26233;51.894;10.192;2023-07-22T14:15:01;3.97;;;3.67;;
40533;SDS011;26233;51.894;10.192;2023-07-22T14:17:30;4.07;;;3.67;;
40533;SDS011;26233;51.894;10.192;2023-07-22T14:19:58;4.00;;;3.65;;
40533;SDS011;26233;51.894;10.192;2023-07-22T14:22:26;4.38;;;3.97;;
40533;SDS011;26233;51.894;10.192;2023-07-22T14:24:54;4.20;;;3.90;;
40533;SDS011;26233;51.894;10.192;2023-07-22T14:27:21;3.95;;;3.58;;
40533;SDS011;26233;51.894;10.192;2023-07-22T14:29:48;4.15;;;3.85;;
40533;SDS011;26233;51.894;10.192;2023-07-22T14:32:18;4.22;;;3.67;;
40533;SDS011;26233;51.894;10.192;2023-07-22T14:34:45;3.30;;;3.10;;
40533;SDS011;26233;51.894;10.192;2023-07-22T14:37:13;3.70;;;3.40;;
40533;SDS011;26233;51.894;10.192;2023-07-22T14:39:40;3.50;;;3.20;;
40533;SDS011;26233;51.894;10.192;2023-07-22T14:42:08;3.58;;;3.33;;